createdAt,value
2023-01-17T05:15:32.483Z,98828.03
2023-01-17T05:17:59.822Z,98830.56
2023-01-17T05:20:27.599Z,98827.63
2023-01-17T05:22:56.581Z,98833.88
2023-01-17T05:25:25.902Z,98845.97
2023-01-17T05:27:53.372Z,98857.19
2023-01-17T05:30:21.795Z,98861.00
2023-01-17T05:32:50.482Z,98861.72
2023-01-17T05:35:20.381Z,98862.19
2023-01-17T05:37:50.101Z,98849.72
2023-01-17T05:40:27.419Z,98852.22
2023-01-17T05:42:57.761Z,98827.91
2023-01-17T05:45:27.691Z,98819.72
2023-01-17T05:47:56.366Z,98822.94
2023-01-17T05:50:33.181Z,98827.34
2023-01-17T05:53:03.416Z,98827.75
2023-01-17T05:55:31.533Z,98823.50
2023-01-17T05:57:59.952Z,98814.31
2023-01-17T06:00:29.808Z,98813.78
2023-01-17T06:02:58.971Z,98799.75
2023-01-17T06:05:27.763Z,98797.72
2023-01-17T06:07:56.531Z,98791.66
2023-01-17T06:10:24.873Z,98794.91
2023-01-17T06:13:04.809Z,98795.06
2023-01-17T06:15:32.743Z,98780.56
2023-01-17T06:18:07.315Z,98775.72
2023-01-17T06:20:35.381Z,98790.38
2023-01-17T06:23:05.240Z,98805.03
2023-01-17T06:25:37.596Z,98815.72
2023-01-17T06:28:07.060Z,98824.91
2023-01-17T06:30:34.920Z,98834.34
2023-01-17T06:33:02.984Z,98826.34
2023-01-17T06:35:30.469Z,98818.53
2023-01-17T06:37:59.826Z,98814.63
2023-01-17T06:40:29.257Z,98815.25
2023-01-17T06:43:01.724Z,98815.34
2023-01-17T06:45:30.236Z,98823.41
2023-01-17T06:47:59.196Z,98816.16
2023-01-17T06:50:27.074Z,98814.91
2023-01-17T06:53:00.400Z,98812.44
2023-01-17T06:55:28.999Z,98805.59
2023-01-17T06:57:59.376Z,98799.59
2023-01-17T07:00:27.626Z,98794.47
2023-01-17T07:02:55.329Z,98787.63
2023-01-17T07:05:23.673Z,98790.75
2023-01-17T07:07:51.149Z,98787.22
2023-01-17T07:10:18.422Z,98782.03
2023-01-17T07:12:45.863Z,98770.22
2023-01-17T07:15:13.391Z,98765.44
2023-01-17T07:17:41.212Z,98759.81
2023-01-17T07:20:09.335Z,98754.06
2023-01-17T07:22:37.739Z,98759.88
2023-01-17T07:25:05.862Z,98748.91
2023-01-17T07:27:33.665Z,98750.16
2023-01-17T07:30:01.088Z,98751.59
2023-01-17T07:32:29.614Z,98740.44
2023-01-17T07:34:57.995Z,98740.44
2023-01-17T07:37:26.402Z,98748.31
2023-01-17T07:39:54.507Z,98754.72
2023-01-17T07:42:24.167Z,98753.47
2023-01-17T07:44:51.719Z,98749.09
2023-01-17T07:47:19.966Z,98751.16
2023-01-17T07:49:47.316Z,98738.75
2023-01-17T07:52:15.834Z,98748.69
2023-01-17T07:54:44.565Z,98736.50
2023-01-17T07:57:12.235Z,98740.63
2023-01-17T07:59:39.634Z,98734.84
2023-01-17T08:02:15.294Z,98736.91
2023-01-17T08:04:42.591Z,98738.34
2023-01-17T08:07:10.210Z,98723.63
2023-01-17T08:09:37.862Z,98723.03
2023-01-17T08:12:05.364Z,98722.38
2023-01-17T08:14:33.251Z,98721.56
2023-01-17T08:17:28.309Z,98718.91
2023-01-17T08:19:55.639Z,98717.63
2023-01-17T08:22:23.235Z,98717.03
2023-01-17T08:24:50.477Z,98709.97
2023-01-17T08:27:17.765Z,98717.88
2023-01-17T08:29:48.245Z,98720.09
2023-01-17T08:32:16.356Z,98726.78
2023-01-17T08:34:44.167Z,98724.03
2023-01-17T08:37:11.872Z,98730.88
2023-01-17T08:39:39.360Z,98741.84
2023-01-17T08:42:07.141Z,98747.22
2023-01-17T08:44:34.674Z,98745.97
2023-01-17T08:47:02.063Z,98744.09
2023-01-17T08:49:29.408Z,98742.22
2023-01-17T08:51:57.548Z,98739.97
2023-01-17T08:54:24.857Z,98731.47
2023-01-17T08:56:52.982Z,98722.78
2023-01-17T08:59:22.799Z,98731.69
2023-01-17T09:01:52.330Z,98718.28
2023-01-17T09:04:19.996Z,98713.09
2023-01-17T09:06:48.436Z,98718.25
2023-01-17T09:09:17.836Z,98716.59
2023-01-17T09:11:45.278Z,98716.59
2023-01-17T09:14:13.155Z,98721.59
2023-01-17T09:16:40.510Z,98727.59
2023-01-17T09:19:09.199Z,98727.81
2023-01-17T09:21:36.508Z,98729.03
2023-01-17T09:24:04.090Z,98734.81
2023-01-17T09:26:31.762Z,98740.03
2023-01-17T09:28:59.228Z,98739.38
2023-01-17T09:31:27.788Z,98738.78
2023-01-17T09:33:57.003Z,98742.50
2023-01-17T09:36:31.963Z,98740.84
2023-01-17T09:38:59.997Z,98739.41
2023-01-17T09:41:36.473Z,98746.00
2023-01-17T09:44:15.650Z,98751.41
2023-01-17T09:46:46.673Z,98747.44
2023-01-17T09:49:21.634Z,98749.53
2023-01-17T09:51:48.926Z,98750.78
2023-01-17T09:54:25.664Z,98745.19
2023-01-17T09:57:04.971Z,98738.53
2023-01-17T09:59:45.433Z,98733.81
2023-01-17T10:02:33.981Z,98732.75
2023-01-17T10:05:38.088Z,98727.16
2023-01-17T10:08:25.485Z,98726.31
2023-01-17T10:11:22.312Z,98727.38
2023-01-17T10:14:00.885Z,98720.94
2023-01-17T10:16:44.840Z,98710.75
2023-01-17T10:19:49.877Z,98708.91
2023-01-17T10:22:35.899Z,98703.13
2023-01-17T10:25:29.981Z,98684.81
2023-01-17T10:27:59.527Z,98679.19
2023-01-17T10:30:35.855Z,98684.81
2023-01-17T10:33:21.224Z,98696.38
2023-01-17T10:35:56.957Z,98702.97
2023-01-17T10:38:30.903Z,98689.91
2023-01-17T10:41:10.438Z,98705.19
2023-01-17T10:43:53.672Z,98695.28
2023-01-17T10:46:28.522Z,98699.56
2023-01-17T10:48:57.337Z,98699.88
2023-01-17T10:51:44.851Z,98700.06
2023-01-17T10:54:40.724Z,98703.44
2023-01-17T10:57:18.459Z,98705.94
2023-01-17T10:59:45.993Z,98701.94
2023-01-17T11:02:30.316Z,98705.63
2023-01-17T11:05:02.601Z,98703.59
2023-01-17T11:07:30.761Z,98701.94
2023-01-17T11:09:58.895Z,98705.06
2023-01-17T11:12:32.433Z,98692.41
2023-01-17T11:15:17.844Z,98686.44
2023-01-17T11:17:53.183Z,98701.03
2023-01-17T11:20:32.775Z,98692.16
2023-01-17T11:23:23.958Z,98690.22
2023-01-17T11:25:58.024Z,98683.31
2023-01-17T11:28:30.254Z,98678.53
2023-01-17T11:31:00.040Z,98681.09
2023-01-17T11:34:16.561Z,98678.91
2023-01-17T11:36:44.025Z,98677.53
2023-01-17T11:39:17.523Z,98668.84
2023-01-17T11:41:47.773Z,98661.19
2023-01-17T11:44:27.363Z,98662.16
2023-01-17T11:47:13.322Z,98647.47
2023-01-17T11:49:42.958Z,98641.22
2023-01-17T11:52:18.878Z,98639.16
2023-01-17T11:54:49.235Z,98640.97
2023-01-17T11:57:24.792Z,98635.03
2023-01-17T12:00:02.506Z,98625.22
2023-01-17T12:02:43.005Z,98617.47
2023-01-17T12:05:44.219Z,98618.09
2023-01-17T12:08:34.233Z,98607.59
2023-01-17T12:11:20.112Z,98608.72
2023-01-17T12:14:03.140Z,98607.50
2023-01-17T12:16:39.806Z,98591.66
2023-01-17T12:19:45.562Z,98591.44
2023-01-17T12:22:25.877Z,98586.41
2023-01-17T12:25:24.848Z,98578.81
2023-01-17T12:27:59.073Z,98567.09
2023-01-17T12:31:04.345Z,98559.25
2023-01-17T12:33:43.668Z,98559.34
2023-01-17T12:36:28.449Z,98568.03
2023-01-17T12:38:56.609Z,98568.41
2023-01-17T12:41:31.558Z,98566.28
2023-01-17T12:44:13.030Z,98559.72
2023-01-17T12:46:49.489Z,98553.03
2023-01-17T12:49:28.852Z,98555.44
2023-01-17T12:52:04.979Z,98545.75
2023-01-17T12:54:40.044Z,98533.53
2023-01-17T12:57:18.762Z,98538.09
2023-01-17T12:59:49.641Z,98536.84
2023-01-17T13:02:37.495Z,98536.78
2023-01-17T13:05:26.218Z,98541.59
2023-01-17T13:08:03.397Z,98531.22
2023-01-17T13:10:55.791Z,98525.22
2023-01-17T13:13:26.063Z,98515.34
2023-01-17T13:16:24.332Z,98520.31
2023-01-17T13:18:52.581Z,98497.75
2023-01-17T13:21:30.419Z,98474.94
2023-01-17T13:24:07.491Z,98463.22
2023-01-17T13:26:56.418Z,98460.06
2023-01-17T13:29:27.491Z,98466.63
2023-01-17T13:31:57.797Z,98457.13
2023-01-17T13:34:40.246Z,98450.00
2023-01-17T13:37:52.439Z,98445.00
2023-01-17T13:40:45.353Z,98449.56
2023-01-17T13:43:18.216Z,98444.66
2023-01-17T13:46:06.655Z,98447.44
2023-01-17T13:48:38.399Z,98450.50
2023-01-17T13:51:08.780Z,98444.97
2023-01-17T13:53:36.775Z,98437.78
2023-01-17T13:56:19.428Z,98432.19
2023-01-17T14:01:51.030Z,98435.22
2023-01-17T14:04:18.496Z,98434.59
2023-01-17T14:06:49.061Z,98433.66
2023-01-17T14:09:47.749Z,98442.09
2023-01-17T14:12:18.935Z,98438.47
2023-01-17T14:14:52.501Z,98433.47
2023-01-17T14:17:25.445Z,98427.06
2023-01-17T14:19:53.699Z,98416.66
2023-01-17T14:22:21.448Z,98419.44
2023-01-17T14:25:15.009Z,98436.91
2023-01-17T14:27:42.730Z,98434.88
2023-01-17T14:30:25.870Z,98427.69
2023-01-17T14:33:01.080Z,98431.19
2023-01-17T14:35:38.703Z,98429.06
2023-01-17T14:38:23.585Z,98428.84
2023-01-17T14:41:13.987Z,98439.81
2023-01-17T14:43:43.861Z,98449.25
2023-01-17T14:46:28.159Z,98444.50
2023-01-17T14:49:05.758Z,98441.03
2023-01-17T14:51:35.161Z,98442.53
2023-01-17T14:54:15.814Z,98454.88
2023-01-17T14:56:43.084Z,98447.97
2023-01-17T14:59:17.232Z,98458.16
2023-01-17T15:02:06.227Z,98478.19
2023-01-17T15:04:40.262Z,98456.88
2023-01-17T15:07:16.156Z,98473.66
2023-01-17T15:09:45.097Z,98487.47
2023-01-17T15:12:16.662Z,98499.06
2023-01-17T15:14:46.564Z,98499.84
2023-01-17T15:17:20.964Z,98497.09
2023-01-17T15:19:55.841Z,98475.28
2023-01-17T15:22:25.834Z,98474.50
2023-01-17T15:24:54.045Z,98494.19
2023-01-17T15:27:22.014Z,98510.41
2023-01-17T15:29:49.432Z,98522.94
2023-01-17T15:32:31.052Z,98533.06
2023-01-17T15:35:01.748Z,98520.03
2023-01-17T15:37:39.357Z,98525.00
2023-01-17T15:40:17.981Z,98537.38
2023-01-17T15:42:50.383Z,98546.03
2023-01-17T15:45:24.134Z,98531.78
2023-01-17T15:47:52.300Z,98534.44
2023-01-17T15:50:19.964Z,98548.28
2023-01-17T15:52:49.294Z,98533.63
2023-01-17T15:55:23.517Z,98527.81
2023-01-17T15:57:51.338Z,98513.81
2023-01-17T16:00:32.465Z,98507.63
2023-01-17T16:02:59.872Z,98521.88
2023-01-17T16:05:33.492Z,98518.34
2023-01-17T16:08:04.347Z,98535.47
2023-01-17T16:10:36.283Z,98532.78
2023-01-17T16:13:05.711Z,98530.94
2023-01-17T16:15:35.397Z,98532.38
2023-01-17T16:18:07.586Z,98529.91
2023-01-17T16:20:42.603Z,98532.78
2023-01-17T16:23:10.488Z,98538.56
2023-01-17T16:25:38.304Z,98528.63
2023-01-17T16:28:06.097Z,98529.06
2023-01-17T16:30:33.723Z,98527.25
2023-01-17T16:33:03.229Z,98517.94
2023-01-17T16:35:33.212Z,98528.06
2023-01-17T16:38:02.368Z,98521.47
2023-01-17T16:40:44.036Z,98522.06
2023-01-17T16:43:13.740Z,98519.38
2023-01-17T16:45:42.947Z,98520.81
2023-01-17T16:48:12.479Z,98523.72
2023-01-17T16:50:42.422Z,98523.91
2023-01-17T16:53:09.768Z,98513.16
2023-01-17T16:55:38.027Z,98514.59
2023-01-17T16:58:05.618Z,98520.81
2023-01-17T17:00:33.600Z,98532.00
2023-01-17T17:03:00.957Z,98526.63
2023-01-17T17:05:30.576Z,98531.81
2023-01-17T17:07:57.861Z,98533.22
2023-01-17T17:10:27.525Z,98539.22
2023-01-17T17:12:55.064Z,98544.78
2023-01-17T17:15:22.916Z,98551.84
2023-01-17T17:17:51.074Z,98548.31
2023-01-17T17:20:19.102Z,98556.19
2023-01-17T17:22:51.012Z,98557.19
2023-01-17T17:25:19.208Z,98554.16
2023-01-17T17:27:46.387Z,98556.63
2023-01-17T17:30:14.332Z,98553.09
2023-01-17T17:32:45.532Z,98549.38
2023-01-17T17:35:12.856Z,98546.50
2023-01-17T17:37:42.557Z,98551.44
2023-01-17T17:40:12.112Z,98541.69
2023-01-17T17:42:40.432Z,98537.41
2023-01-17T17:45:08.178Z,98546.91
2023-01-17T17:47:35.927Z,98534.72
2023-01-17T17:50:03.792Z,98546.50
2023-01-17T17:52:32.324Z,98543.41
2023-01-17T17:54:59.738Z,98545.91
2023-01-17T17:57:27.011Z,98547.56
2023-01-17T17:59:56.682Z,98543.81
2023-01-17T18:02:24.204Z,98556.44
2023-01-17T18:04:51.950Z,98548.97
2023-01-17T18:07:19.926Z,98556.78
2023-01-17T18:09:47.449Z,98564.22
2023-01-17T18:12:15.554Z,98575.38
2023-01-17T18:14:43.070Z,98576.66
2023-01-17T18:17:10.354Z,98582.72
2023-01-17T18:19:39.127Z,98587.88
2023-01-17T18:22:06.818Z,98585.59
2023-01-17T18:24:34.222Z,98586.22
2023-01-17T18:27:01.567Z,98583.91
2023-01-17T18:29:28.863Z,98576.69
2023-01-17T18:31:56.566Z,98578.56
2023-01-17T18:34:29.149Z,98578.78
2023-01-17T18:36:57.281Z,98577.56
2023-01-17T18:39:27.109Z,98578.13
2023-01-17T18:41:55.039Z,98574.22
2023-01-17T18:44:23.031Z,98581.25
2023-01-17T18:46:54.797Z,98571.34
2023-01-17T18:49:22.123Z,98575.47
2023-01-17T18:51:50.512Z,98571.31
2023-01-17T18:54:19.830Z,98568.44
2023-01-17T18:56:48.676Z,98565.75
2023-01-17T18:59:18.423Z,98559.94
2023-01-17T19:01:46.706Z,98559.56
2023-01-17T19:04:15.992Z,98570.50
2023-01-17T19:06:46.419Z,98571.50
2023-01-17T19:09:15.411Z,98574.03
2023-01-17T19:11:44.848Z,98573.59
2023-01-17T19:14:12.836Z,98580.03
2023-01-17T19:16:41.839Z,98587.25
2023-01-17T19:19:12.842Z,98595.75
2023-01-17T19:21:40.242Z,98590.16
2023-01-17T19:24:09.715Z,98591.16
2023-01-17T19:26:36.987Z,98594.28
2023-01-17T19:29:06.592Z,98595.28
2023-01-17T19:31:40.173Z,98599.44
2023-01-17T19:34:07.461Z,98596.97
2023-01-17T19:36:37.379Z,98595.31
2023-01-17T19:39:06.719Z,98590.16
2023-01-17T19:41:36.577Z,98592.00
2023-01-17T19:44:06.929Z,98587.66
2023-01-17T19:46:35.827Z,98594.28
2023-01-17T19:49:05.528Z,98599.22
2023-01-17T19:51:33.106Z,98600.25
2023-01-17T19:54:01.960Z,98588.88
2023-01-17T19:56:30.448Z,98582.69
2023-01-17T19:59:01.666Z,98583.94
2023-01-17T20:01:32.638Z,98586.41
2023-01-17T20:04:01.925Z,98578.38
2023-01-17T20:06:35.345Z,98579.16
2023-01-17T20:09:04.236Z,98581.25
2023-01-17T20:11:31.884Z,98573.00
2023-01-17T20:14:00.171Z,98570.50
2023-01-17T20:16:30.855Z,98578.34
2023-01-17T20:19:00.193Z,98563.28
2023-01-17T20:21:29.324Z,98566.56
2023-01-17T20:23:58.310Z,98564.72
2023-01-17T20:26:34.722Z,98557.47
2023-01-17T20:29:07.351Z,98555.59
2023-01-17T20:31:39.434Z,98553.97
2023-01-17T20:34:08.565Z,98551.69
2023-01-17T20:36:37.055Z,98544.84
2023-01-17T20:39:06.835Z,98555.41
2023-01-17T20:41:39.452Z,98547.56
2023-01-17T20:44:10.278Z,98556.03
2023-01-17T20:46:41.021Z,98558.69
2023-01-17T20:49:14.989Z,98562.59
2023-01-17T20:51:44.400Z,98567.16
2023-01-17T20:54:15.143Z,98571.28
2023-01-17T20:56:43.082Z,98576.66
2023-01-17T20:59:16.661Z,98568.38
2023-01-17T21:01:44.627Z,98569.66
2023-01-17T21:04:12.996Z,98565.91
2023-01-17T21:06:41.711Z,98565.28
2023-01-17T21:09:12.505Z,98565.09
2023-01-17T21:11:40.484Z,98559.53
2023-01-17T21:14:08.734Z,98566.78
2023-01-17T21:16:36.258Z,98570.66
2023-01-17T21:19:03.778Z,98569.25
2023-01-17T21:21:31.523Z,98566.97
2023-01-17T21:23:59.427Z,98568.84
2023-01-17T21:26:28.914Z,98569.03
2023-01-17T21:29:00.516Z,98565.69
2023-01-17T21:31:30.545Z,98572.50
2023-01-17T21:34:00.452Z,98573.34
2023-01-17T21:36:32.592Z,98574.19
2023-01-17T21:39:04.684Z,98572.75
2023-01-17T21:41:38.154Z,98561.38
2023-01-17T21:44:08.580Z,98563.44
2023-01-17T21:46:38.724Z,98550.03
2023-01-17T21:49:10.723Z,98549.63
2023-01-17T21:52:02.933Z,98554.97
2023-01-17T21:54:49.280Z,98571.75
2023-01-17T21:57:39.584Z,98558.91
2023-01-17T22:00:10.720Z,98570.09
2023-01-17T22:02:44.653Z,98573.97
2023-01-17T22:05:13.807Z,98563.88
2023-01-17T22:08:01.503Z,98561.34
2023-01-17T22:10:29.542Z,98557.19
2023-01-17T22:12:57.758Z,98541.09
2023-01-17T22:15:25.005Z,98555.97
2023-01-17T22:17:52.399Z,98555.53
2023-01-17T22:20:21.344Z,98565.91
2023-01-17T22:22:49.257Z,98560.94
2023-01-17T22:25:16.689Z,98564.84
2023-01-17T22:27:43.930Z,98579.31
2023-01-17T22:30:13.086Z,98571.66
2023-01-17T22:32:41.279Z,98583.22
2023-01-17T22:35:09.480Z,98592.94
2023-01-17T22:37:37.217Z,98596.84
2023-01-17T22:40:05.904Z,98600.38
2023-01-17T22:42:34.707Z,98598.91
2023-01-17T22:45:02.080Z,98592.31
2023-01-17T22:47:30.260Z,98589.84
2023-01-17T22:49:57.618Z,98595.00
2023-01-17T22:52:25.171Z,98595.00
2023-01-17T22:54:52.509Z,98594.41
2023-01-17T22:57:19.810Z,98597.94
2023-01-17T22:59:47.482Z,98588.84
2023-01-17T23:02:16.562Z,98581.63
2023-01-17T23:04:44.611Z,98574.34
2023-01-17T23:07:11.869Z,98570.22
2023-01-17T23:09:39.548Z,98570.38
2023-01-17T23:12:07.556Z,98561.69
2023-01-17T23:14:54.741Z,98556.50
2023-01-17T23:17:43.036Z,98554.31
2023-01-17T23:20:11.396Z,98561.47
2023-01-17T23:22:38.711Z,98559.38
2023-01-17T23:25:11.706Z,98552.56
2023-01-17T23:27:59.024Z,98541.59
2023-01-17T23:30:37.980Z,98538.91
2023-01-17T23:33:06.721Z,98534.94
2023-01-17T23:35:45.727Z,98538.03
2023-01-17T23:38:29.001Z,98543.22
2023-01-17T23:41:33.275Z,98546.91
2023-01-17T23:44:00.991Z,98551.69
2023-01-17T23:46:30.047Z,98551.28
2023-01-17T23:48:57.521Z,98553.16
2023-01-17T23:51:25.296Z,98552.38
2023-01-17T23:53:57.230Z,98554.22
2023-01-17T23:56:24.884Z,98552.66
2023-01-17T23:58:52.132Z,98566.22
